HIM775 ZULS-VNKT
Flight info
| Callsign | HIM775 |
|---|---|
| Flight time | 1h 16m |
| Altitude | 38100 |
| Route | DEP10R IKUBI B345 KIMTI |
| Aircraft | A319/M-SDE3FGHIRWY/LB1 |
Departure
| Time | 2026-05-07 10:09 |
|---|---|
| Airport | Lhasa Gonggar International Airport (ZULS) |
Arrival
| Time | 2026-05-07 11:25 |
|---|---|
| Airport | Tribhuvan International Airport (VNKT) |
| Time | Latitude | Longitude | Altitude | Speed | Heading |
|---|---|---|---|---|---|
| 2026-05-07 09:57 | 29.29422 | 90.89505 | 11486 ft | 0 kts | 179° |
| 2026-05-07 10:04 | 29.29441 | 90.89505 | 11475 ft | 4 kts | 180° |
| 2026-05-07 10:05 | 29.29468 | 90.89506 | 11476 ft | 4 kts | 185° |
| 2026-05-07 10:05 | 29.29495 | 90.89510 | 11483 ft | 4 kts | 198° |
| 2026-05-07 10:05 | 29.29515 | 90.89524 | 11474 ft | 4 kts | 249° |
| 2026-05-07 10:05 | 29.29517 | 90.89531 | 11470 ft | 0 kts | 268° |
| 2026-05-07 10:06 | 29.29517 | 90.89530 | 11473 ft | 1 kts | 268° |
| 2026-05-07 10:07 | 29.29516 | 90.89484 | 11487 ft | 13 kts | 269° |
| 2026-05-07 10:07 | 29.29514 | 90.89335 | 11491 ft | 23 kts | 269° |
| 2026-05-07 10:07 | 29.29547 | 90.89209 | 11478 ft | 16 kts | 341° |
| 2026-05-07 10:07 | 29.29661 | 90.89204 | 11487 ft | 17 kts | 358° |
| 2026-05-07 10:08 | 29.29769 | 90.89234 | 11490 ft | 16 kts | 57° |
| 2026-05-07 10:08 | 29.29779 | 90.89340 | 11490 ft | 12 kts | 89° |
| 2026-05-07 10:08 | 29.29781 | 90.89523 | 11492 ft | 48 kts | 89° |
| 2026-05-07 10:08 | 29.29791 | 90.90157 | 11492 ft | 110 kts | 89° |
| 2026-05-07 10:09 | 29.29808 | 90.91235 | 11488 ft | 159 kts | 89° |
| 2026-05-07 10:09 | 29.29827 | 90.92661 | 11465 ft | 199 kts | 89° |
| 2026-05-07 10:09 | 29.29831 | 90.94299 | 11859 ft | 205 kts | 94° |
| 2026-05-07 10:09 | 29.29870 | 90.95948 | 12498 ft | 209 kts | 91° |
| 2026-05-07 10:10 | 29.29912 | 90.97608 | 13172 ft | 209 kts | 92° |
| 2026-05-07 10:10 | 29.29943 | 90.99287 | 13430 ft | 217 kts | 91° |
| 2026-05-07 10:10 | 29.30150 | 91.01067 | 13520 ft | 235 kts | 78° |
| 2026-05-07 10:10 | 29.30473 | 91.02286 | 13574 ft | 249 kts | 70° |
| 2026-05-07 10:11 | 29.31481 | 91.04845 | 13678 ft | 278 kts | 72° |
| 2026-05-07 10:11 | 29.31885 | 91.07094 | 13836 ft | 298 kts | 90° |
| 2026-05-07 10:11 | 29.31850 | 91.08672 | 14175 ft | 302 kts | 100° |
| 2026-05-07 10:11 | 29.31372 | 91.11021 | 14746 ft | 305 kts | 110° |
| 2026-05-07 10:12 | 29.30847 | 91.13390 | 15472 ft | 308 kts | 106° |
| 2026-05-07 10:12 | 29.30455 | 91.15811 | 16255 ft | 309 kts | 102° |
| 2026-05-07 10:12 | 29.30203 | 91.18263 | 17049 ft | 311 kts | 98° |
| 2026-05-07 10:12 | 29.30029 | 91.20747 | 17791 ft | 314 kts | 97° |
| 2026-05-07 10:13 | 29.29849 | 91.23253 | 18484 ft | 316 kts | 98° |
| 2026-05-07 10:13 | 29.29661 | 91.25778 | 19122 ft | 320 kts | 98° |
| 2026-05-07 10:13 | 29.29467 | 91.28335 | 19756 ft | 323 kts | 97° |
| 2026-05-07 10:13 | 29.29244 | 91.30906 | 20413 ft | 325 kts | 103° |
| 2026-05-07 10:14 | 29.28619 | 91.33382 | 21074 ft | 323 kts | 118° |
| 2026-05-07 10:14 | 29.27533 | 91.35619 | 21694 ft | 322 kts | 130° |
| 2026-05-07 10:14 | 29.26041 | 91.37520 | 22355 ft | 320 kts | 142° |
| 2026-05-07 10:14 | 29.24226 | 91.39001 | 22994 ft | 320 kts | 155° |
| 2026-05-07 10:15 | 29.22192 | 91.40030 | 23533 ft | 322 kts | 162° |
| 2026-05-07 10:15 | 29.20082 | 91.40960 | 24052 ft | 326 kts | 164° |
| 2026-05-07 10:15 | 29.17963 | 91.41889 | 24589 ft | 329 kts | 165° |
| 2026-05-07 10:15 | 29.15813 | 91.42831 | 25148 ft | 332 kts | 165° |
| 2026-05-07 10:16 | 29.13619 | 91.43621 | 25706 ft | 329 kts | 175° |
| 2026-05-07 10:16 | 29.11388 | 91.43772 | 26305 ft | 323 kts | 189° |
| 2026-05-07 10:16 | 29.09207 | 91.43229 | 26780 ft | 321 kts | 205° |
| 2026-05-07 10:16 | 29.07269 | 91.42028 | 27378 ft | 314 kts | 220° |
| 2026-05-07 10:17 | 29.05690 | 91.40318 | 27888 ft | 313 kts | 234° |
| 2026-05-07 10:17 | 29.04546 | 91.38195 | 28382 ft | 315 kts | 248° |
| 2026-05-07 10:17 | 29.03918 | 91.35784 | 28886 ft | 319 kts | 262° |
| 2026-05-07 10:17 | 29.03859 | 91.33243 | 29375 ft | 324 kts | 275° |
| 2026-05-07 10:18 | 29.04363 | 91.30709 | 29858 ft | 332 kts | 284° |
| 2026-05-07 10:18 | 29.05026 | 91.28127 | 29969 ft | 345 kts | 284° |
| 2026-05-07 10:18 | 29.05716 | 91.25451 | 30089 ft | 357 kts | 283° |
| 2026-05-07 10:18 | 29.06433 | 91.22678 | 30204 ft | 370 kts | 283° |
| 2026-05-07 10:19 | 29.07174 | 91.19812 | 30312 ft | 381 kts | 283° |
| 2026-05-07 10:19 | 29.07935 | 91.16864 | 30431 ft | 393 kts | 283° |
| 2026-05-07 10:19 | 29.08721 | 91.13820 | 30562 ft | 404 kts | 284° |
| 2026-05-07 10:19 | 29.09524 | 91.10707 | 30682 ft | 413 kts | 283° |
| 2026-05-07 10:20 | 29.10346 | 91.07521 | 30796 ft | 422 kts | 283° |
| 2026-05-07 10:20 | 29.11179 | 91.04263 | 30911 ft | 431 kts | 283° |
| 2026-05-07 10:20 | 29.12024 | 91.00953 | 31085 ft | 436 kts | 283° |
| 2026-05-07 10:20 | 29.12880 | 90.97611 | 31358 ft | 439 kts | 283° |
| 2026-05-07 10:21 | 29.13740 | 90.94267 | 31763 ft | 438 kts | 283° |
| 2026-05-07 10:21 | 29.14599 | 90.90928 | 32257 ft | 436 kts | 283° |
| 2026-05-07 10:21 | 29.15442 | 90.87649 | 32706 ft | 435 kts | 282° |
| 2026-05-07 10:21 | 29.16287 | 90.84335 | 33166 ft | 433 kts | 282° |
| 2026-05-07 10:22 | 29.17128 | 90.81029 | 33656 ft | 431 kts | 282° |
| 2026-05-07 10:22 | 29.17964 | 90.77742 | 34080 ft | 429 kts | 281° |
| 2026-05-07 10:22 | 29.18794 | 90.74465 | 34530 ft | 427 kts | 282° |
| 2026-05-07 10:22 | 29.19617 | 90.71211 | 34986 ft | 425 kts | 282° |
| 2026-05-07 10:23 | 29.20438 | 90.67973 | 35417 ft | 422 kts | 282° |
| 2026-05-07 10:23 | 29.21252 | 90.64756 | 35864 ft | 419 kts | 281° |
| 2026-05-07 10:23 | 29.22061 | 90.61551 | 36285 ft | 417 kts | 282° |
| 2026-05-07 10:23 | 29.22866 | 90.58362 | 36631 ft | 416 kts | 281° |
| 2026-05-07 10:24 | 29.23669 | 90.55182 | 37037 ft | 414 kts | 281° |
| 2026-05-07 10:24 | 29.24467 | 90.52029 | 37489 ft | 411 kts | 281° |
| 2026-05-07 10:24 | 29.25250 | 90.48925 | 37839 ft | 410 kts | 281° |
| 2026-05-07 10:24 | 29.26039 | 90.45791 | 37946 ft | 409 kts | 281° |
| 2026-05-07 10:25 | 29.26824 | 90.42658 | 37955 ft | 408 kts | 281° |
| 2026-05-07 10:25 | 29.28394 | 90.36406 | 37965 ft | 410 kts | 281° |
| 2026-05-07 10:26 | 29.29973 | 90.30098 | 37972 ft | 412 kts | 282° |
| 2026-05-07 10:26 | 29.31539 | 90.23814 | 37974 ft | 410 kts | 281° |
| 2026-05-07 10:27 | 29.32731 | 90.17489 | 37966 ft | 402 kts | 269° |
| 2026-05-07 10:27 | 29.32937 | 90.11076 | 37989 ft | 403 kts | 269° |
| 2026-05-07 10:28 | 29.33150 | 90.04648 | 37990 ft | 404 kts | 269° |
| 2026-05-07 10:28 | 29.33366 | 89.98263 | 37988 ft | 402 kts | 270° |
| 2026-05-07 10:29 | 29.33583 | 89.91838 | 38007 ft | 404 kts | 269° |
| 2026-05-07 10:29 | 29.33790 | 89.85405 | 38003 ft | 404 kts | 269° |
| 2026-05-07 10:30 | 29.34093 | 89.75749 | 38004 ft | 404 kts | 269° |
| 2026-05-07 10:30 | 29.34289 | 89.69331 | 37979 ft | 403 kts | 269° |
| 2026-05-07 10:31 | 29.34478 | 89.62929 | 37978 ft | 402 kts | 269° |
| 2026-05-07 10:31 | 29.34660 | 89.56524 | 37981 ft | 402 kts | 269° |
| 2026-05-07 10:32 | 29.34855 | 89.50118 | 37950 ft | 402 kts | 269° |
| 2026-05-07 10:32 | 29.35040 | 89.43713 | 37950 ft | 402 kts | 269° |
| 2026-05-07 10:33 | 29.35219 | 89.37304 | 37925 ft | 402 kts | 269° |
| 2026-05-07 10:33 | 29.35228 | 89.30952 | 37925 ft | 399 kts | 260° |
| 2026-05-07 10:34 | 29.33404 | 89.25009 | 37926 ft | 399 kts | 239° |
| 2026-05-07 10:34 | 29.29798 | 89.20139 | 37914 ft | 403 kts | 230° |
| 2026-05-07 10:35 | 29.25988 | 89.15439 | 37905 ft | 402 kts | 230° |
| 2026-05-07 10:35 | 29.22180 | 89.10735 | 37895 ft | 402 kts | 231° |
| 2026-05-07 10:36 | 29.18373 | 89.06044 | 37907 ft | 402 kts | 230° |
| 2026-05-07 10:36 | 29.14568 | 89.01369 | 37909 ft | 402 kts | 230° |
| 2026-05-07 10:37 | 29.10778 | 88.96727 | 37923 ft | 401 kts | 230° |
| 2026-05-07 10:37 | 29.06969 | 88.92056 | 37931 ft | 402 kts | 230° |
| 2026-05-07 10:38 | 29.03153 | 88.87373 | 37936 ft | 402 kts | 230° |
| 2026-05-07 10:38 | 28.99337 | 88.82709 | 37978 ft | 401 kts | 230° |
| 2026-05-07 10:39 | 28.95521 | 88.78051 | 37973 ft | 402 kts | 230° |
| 2026-05-07 10:39 | 28.91711 | 88.73402 | 37962 ft | 401 kts | 230° |
| 2026-05-07 10:40 | 28.87899 | 88.68750 | 38010 ft | 401 kts | 230° |
| 2026-05-07 10:40 | 28.84086 | 88.64106 | 38017 ft | 401 kts | 230° |
| 2026-05-07 10:41 | 28.80298 | 88.59498 | 38032 ft | 401 kts | 230° |
| 2026-05-07 10:41 | 28.76482 | 88.54861 | 38056 ft | 401 kts | 230° |
| 2026-05-07 10:42 | 28.72665 | 88.50228 | 38059 ft | 401 kts | 230° |
| 2026-05-07 10:42 | 28.68858 | 88.45616 | 38077 ft | 401 kts | 230° |
| 2026-05-07 10:43 | 28.65032 | 88.40984 | 38051 ft | 402 kts | 230° |
| 2026-05-07 10:43 | 28.61193 | 88.36345 | 38064 ft | 403 kts | 230° |
| 2026-05-07 10:44 | 28.57347 | 88.31693 | 38056 ft | 402 kts | 230° |
| 2026-05-07 10:44 | 28.53536 | 88.27092 | 38057 ft | 402 kts | 230° |
| 2026-05-07 10:45 | 28.49698 | 88.22464 | 38079 ft | 402 kts | 230° |
| 2026-05-07 10:45 | 28.45852 | 88.17841 | 38080 ft | 403 kts | 230° |
| 2026-05-07 10:46 | 28.42006 | 88.13221 | 38088 ft | 402 kts | 230° |
| 2026-05-07 10:46 | 28.38160 | 88.08595 | 38121 ft | 402 kts | 230° |
| 2026-05-07 10:47 | 28.34309 | 88.03980 | 38116 ft | 403 kts | 229° |
| 2026-05-07 10:47 | 28.30447 | 87.99361 | 38119 ft | 402 kts | 230° |
| 2026-05-07 10:48 | 28.26614 | 87.94766 | 38177 ft | 403 kts | 230° |
| 2026-05-07 10:48 | 28.22750 | 87.90147 | 38189 ft | 404 kts | 230° |
| 2026-05-07 10:49 | 28.18872 | 87.85519 | 38237 ft | 404 kts | 230° |
| 2026-05-07 10:49 | 28.14998 | 87.80895 | 38227 ft | 404 kts | 230° |
| 2026-05-07 10:50 | 28.11118 | 87.76276 | 38218 ft | 403 kts | 230° |
| 2026-05-07 10:50 | 28.07239 | 87.71663 | 38224 ft | 404 kts | 230° |
| 2026-05-07 10:51 | 28.03392 | 87.67091 | 38297 ft | 403 kts | 230° |
| 2026-05-07 10:51 | 27.99521 | 87.62497 | 38303 ft | 403 kts | 230° |
| 2026-05-07 10:52 | 27.95638 | 87.57903 | 38307 ft | 404 kts | 230° |
| 2026-05-07 10:52 | 27.91765 | 87.53313 | 38318 ft | 403 kts | 230° |
| 2026-05-07 10:53 | 27.89829 | 87.51022 | 38205 ft | 401 kts | 230° |
| 2026-05-07 10:53 | 27.87892 | 87.48736 | 38226 ft | 402 kts | 230° |
| 2026-05-07 10:53 | 27.83852 | 87.44358 | 38224 ft | 406 kts | 221° |
| 2026-05-07 10:54 | 27.78839 | 87.41237 | 38237 ft | 420 kts | 209° |
| 2026-05-07 10:54 | 27.73444 | 87.38697 | 38187 ft | 418 kts | 208° |
| 2026-05-07 10:55 | 27.68031 | 87.36237 | 38200 ft | 418 kts | 208° |
| 2026-05-07 10:55 | 27.62839 | 87.33390 | 38200 ft | 409 kts | 224° |
| 2026-05-07 10:56 | 27.60876 | 87.31114 | 38227 ft | 403 kts | 238° |
| 2026-05-07 10:56 | 27.59561 | 87.28350 | 38232 ft | 399 kts | 251° |
| 2026-05-07 10:56 | 27.58965 | 87.25306 | 38227 ft | 398 kts | 263° |
| 2026-05-07 10:56 | 27.58686 | 87.22196 | 38235 ft | 399 kts | 263° |
| 2026-05-07 10:57 | 27.58132 | 87.16022 | 38231 ft | 398 kts | 263° |
| 2026-05-07 10:57 | 27.57565 | 87.09823 | 38237 ft | 398 kts | 263° |
| 2026-05-07 10:58 | 27.56986 | 87.03625 | 38226 ft | 397 kts | 263° |
| 2026-05-07 10:58 | 27.56412 | 86.97429 | 38241 ft | 397 kts | 262° |
| 2026-05-07 10:59 | 27.55939 | 86.92293 | 38230 ft | 397 kts | 262° |
| 2026-05-07 10:59 | 27.55361 | 86.86111 | 38219 ft | 396 kts | 262° |
| 2026-05-07 11:00 | 27.54776 | 86.79934 | 38204 ft | 396 kts | 262° |
| 2026-05-07 11:00 | 27.54188 | 86.73751 | 38212 ft | 398 kts | 262° |
| 2026-05-07 11:01 | 27.53598 | 86.67554 | 38217 ft | 399 kts | 262° |
| 2026-05-07 11:01 | 27.53014 | 86.61353 | 38179 ft | 396 kts | 262° |
| 2026-05-07 11:02 | 27.52427 | 86.55179 | 38178 ft | 396 kts | 262° |
| 2026-05-07 11:02 | 27.51828 | 86.49008 | 38152 ft | 397 kts | 262° |
| 2026-05-07 11:03 | 27.51230 | 86.42827 | 38086 ft | 398 kts | 262° |
| 2026-05-07 11:03 | 27.50930 | 86.39728 | 37820 ft | 398 kts | 262° |
| 2026-05-07 11:03 | 27.50629 | 86.36639 | 37564 ft | 395 kts | 262° |
| 2026-05-07 11:04 | 27.50331 | 86.33578 | 37286 ft | 393 kts | 262° |
| 2026-05-07 11:04 | 27.49986 | 86.30567 | 37038 ft | 392 kts | 257° |
| 2026-05-07 11:04 | 27.49305 | 86.27602 | 36782 ft | 391 kts | 252° |
| 2026-05-07 11:04 | 27.48268 | 86.24783 | 36538 ft | 391 kts | 244° |
| 2026-05-07 11:05 | 27.46893 | 86.22142 | 36299 ft | 392 kts | 238° |
| 2026-05-07 11:05 | 27.45361 | 86.19600 | 36058 ft | 391 kts | 238° |
| 2026-05-07 11:05 | 27.43841 | 86.17066 | 35783 ft | 392 kts | 238° |
| 2026-05-07 11:05 | 27.42309 | 86.14509 | 35545 ft | 394 kts | 238° |
| 2026-05-07 11:06 | 27.40774 | 86.11946 | 35173 ft | 395 kts | 238° |
| 2026-05-07 11:06 | 27.39218 | 86.09347 | 34297 ft | 405 kts | 238° |
| 2026-05-07 11:06 | 27.37655 | 86.06739 | 34014 ft | 397 kts | 238° |
| 2026-05-07 11:06 | 27.36121 | 86.04186 | 33648 ft | 391 kts | 238° |
| 2026-05-07 11:07 | 27.34611 | 86.01678 | 32982 ft | 385 kts | 238° |
| 2026-05-07 11:07 | 27.33117 | 85.99199 | 32267 ft | 381 kts | 238° |
| 2026-05-07 11:07 | 27.31638 | 85.96746 | 31536 ft | 377 kts | 238° |
| 2026-05-07 11:07 | 27.30174 | 85.94319 | 30863 ft | 374 kts | 238° |
| 2026-05-07 11:08 | 27.28716 | 85.91904 | 30163 ft | 371 kts | 238° |
| 2026-05-07 11:08 | 27.27273 | 85.89512 | 29422 ft | 368 kts | 238° |
| 2026-05-07 11:08 | 27.25841 | 85.87138 | 28727 ft | 365 kts | 238° |
| 2026-05-07 11:08 | 27.24424 | 85.84788 | 28064 ft | 361 kts | 238° |
| 2026-05-07 11:09 | 27.23020 | 85.82464 | 27408 ft | 358 kts | 238° |
| 2026-05-07 11:09 | 27.21630 | 85.80161 | 26763 ft | 354 kts | 238° |
| 2026-05-07 11:09 | 27.20255 | 85.77886 | 26129 ft | 351 kts | 238° |
| 2026-05-07 11:09 | 27.18887 | 85.75626 | 25493 ft | 347 kts | 238° |
| 2026-05-07 11:10 | 27.17554 | 85.73420 | 24873 ft | 344 kts | 238° |
| 2026-05-07 11:10 | 27.16215 | 85.71205 | 24225 ft | 341 kts | 238° |
| 2026-05-07 11:10 | 27.14886 | 85.69009 | 23615 ft | 338 kts | 237° |
| 2026-05-07 11:10 | 27.13651 | 85.66775 | 22912 ft | 334 kts | 244° |
| 2026-05-07 11:11 | 27.12714 | 85.64404 | 22181 ft | 331 kts | 251° |
| 2026-05-07 11:11 | 27.12097 | 85.61920 | 21509 ft | 329 kts | 259° |
| 2026-05-07 11:11 | 27.11790 | 85.59389 | 20857 ft | 327 kts | 266° |
| 2026-05-07 11:11 | 27.11762 | 85.56837 | 20211 ft | 326 kts | 270° |
| 2026-05-07 11:12 | 27.11772 | 85.54301 | 19594 ft | 324 kts | 270° |
| 2026-05-07 11:12 | 27.11773 | 85.51805 | 19009 ft | 323 kts | 270° |
| 2026-05-07 11:12 | 27.11772 | 85.49256 | 18426 ft | 322 kts | 270° |
| 2026-05-07 11:12 | 27.11773 | 85.46780 | 17814 ft | 321 kts | 270° |
| 2026-05-07 11:13 | 27.11772 | 85.44286 | 17209 ft | 318 kts | 270° |
| 2026-05-07 11:13 | 27.11768 | 85.41813 | 16638 ft | 315 kts | 270° |
| 2026-05-07 11:13 | 27.11765 | 85.39364 | 16097 ft | 312 kts | 270° |
| 2026-05-07 11:13 | 27.11769 | 85.36934 | 15567 ft | 310 kts | 271° |
| 2026-05-07 11:14 | 27.12082 | 85.34559 | 15282 ft | 308 kts | 285° |
| 2026-05-07 11:14 | 27.12892 | 85.32333 | 15137 ft | 310 kts | 299° |
| 2026-05-07 11:14 | 27.14155 | 85.30353 | 14539 ft | 315 kts | 313° |
| 2026-05-07 11:14 | 27.15854 | 85.28809 | 14147 ft | 311 kts | 326° |
| 2026-05-07 11:15 | 27.17643 | 85.27490 | 13690 ft | 306 kts | 325° |
| 2026-05-07 11:15 | 27.19408 | 85.26172 | 13141 ft | 303 kts | 325° |
| 2026-05-07 11:15 | 27.21153 | 85.24858 | 12596 ft | 301 kts | 324° |
| 2026-05-07 11:15 | 27.22879 | 85.23551 | 12059 ft | 298 kts | 324° |
| 2026-05-07 11:16 | 27.24592 | 85.22251 | 11528 ft | 296 kts | 324° |
| 2026-05-07 11:16 | 27.26290 | 85.20963 | 10986 ft | 294 kts | 324° |
| 2026-05-07 11:16 | 27.28049 | 85.19819 | 10537 ft | 292 kts | 336° |
| 2026-05-07 11:16 | 27.29990 | 85.19218 | 10405 ft | 296 kts | 351° |
| 2026-05-07 11:17 | 27.32048 | 85.19196 | 10399 ft | 299 kts | 5° |
| 2026-05-07 11:17 | 27.34076 | 85.19775 | 9939 ft | 301 kts | 21° |
| 2026-05-07 11:17 | 27.35948 | 85.20652 | 9730 ft | 284 kts | 21° |
| 2026-05-07 11:17 | 27.37742 | 85.21482 | 9434 ft | 272 kts | 21° |
| 2026-05-07 11:18 | 27.39437 | 85.22259 | 9318 ft | 254 kts | 21° |
| 2026-05-07 11:18 | 27.41027 | 85.22980 | 9205 ft | 240 kts | 21° |
| 2026-05-07 11:18 | 27.42563 | 85.23674 | 9109 ft | 235 kts | 21° |
| 2026-05-07 11:18 | 27.44044 | 85.24342 | 8990 ft | 221 kts | 21° |
| 2026-05-07 11:19 | 27.45464 | 85.24799 | 8867 ft | 206 kts | 6° |
| 2026-05-07 11:19 | 27.46865 | 85.24833 | 8728 ft | 199 kts | 353° |
| 2026-05-07 11:19 | 27.48199 | 85.24513 | 8593 ft | 197 kts | 343° |
| 2026-05-07 11:19 | 27.49520 | 85.24109 | 8329 ft | 196 kts | 344° |
| 2026-05-07 11:20 | 27.50798 | 85.23747 | 8086 ft | 187 kts | 348° |
| 2026-05-07 11:20 | 27.52080 | 85.23626 | 7890 ft | 184 kts | 359° |
| 2026-05-07 11:20 | 27.53318 | 85.23773 | 7671 ft | 170 kts | 10° |
| 2026-05-07 11:20 | 27.54396 | 85.24129 | 7467 ft | 155 kts | 20° |
| 2026-05-07 11:21 | 27.55338 | 85.24641 | 7295 ft | 147 kts | 30° |
| 2026-05-07 11:21 | 27.56178 | 85.25291 | 7121 ft | 146 kts | 38° |
| 2026-05-07 11:21 | 27.56951 | 85.26023 | 6952 ft | 145 kts | 39° |
| 2026-05-07 11:21 | 27.57722 | 85.26745 | 6774 ft | 144 kts | 39° |
| 2026-05-07 11:22 | 27.58459 | 85.27504 | 6612 ft | 143 kts | 45° |
| 2026-05-07 11:22 | 27.59096 | 85.28369 | 6428 ft | 143 kts | 53° |
| 2026-05-07 11:22 | 27.59622 | 85.29318 | 6239 ft | 143 kts | 60° |
| 2026-05-07 11:22 | 27.60183 | 85.30236 | 6062 ft | 142 kts | 51° |
| 2026-05-07 11:23 | 27.60839 | 85.31071 | 5884 ft | 142 kts | 44° |
| 2026-05-07 11:23 | 27.61569 | 85.31810 | 5703 ft | 141 kts | 38° |
| 2026-05-07 11:23 | 27.62363 | 85.32446 | 5524 ft | 139 kts | 30° |
| 2026-05-07 11:23 | 27.63207 | 85.32971 | 5353 ft | 137 kts | 24° |
| 2026-05-07 11:24 | 27.64066 | 85.33438 | 5176 ft | 136 kts | 24° |
| 2026-05-07 11:24 | 27.64926 | 85.33893 | 5023 ft | 136 kts | 25° |
| 2026-05-07 11:24 | 27.65788 | 85.34323 | 4829 ft | 135 kts | 20° |
| 2026-05-07 11:24 | 27.66680 | 85.34610 | 4681 ft | 134 kts | 14° |
| 2026-05-07 11:25 | 27.67557 | 85.34964 | 4513 ft | 133 kts | 22° |
| 2026-05-07 11:25 | 27.68413 | 85.35351 | 4391 ft | 133 kts | 20° |
| 2026-05-07 11:25 | 27.69172 | 85.35696 | 4351 ft | 97 kts | 22° |
| 2026-05-07 11:25 | 27.69638 | 85.35904 | 4354 ft | 45 kts | 21° |
| 2026-05-07 11:26 | 27.69842 | 85.35995 | 4360 ft | 20 kts | 18° |
| 2026-05-07 11:26 | 27.69912 | 85.35928 | 4367 ft | 11 kts | 276° |
| 2026-05-07 11:26 | 27.69930 | 85.35845 | 4370 ft | 9 kts | 289° |
| 2026-05-07 11:26 | 27.69943 | 85.35807 | 4369 ft | 0 kts | 290° |